createdAt,value
2019-06-15T00:00:54.210Z,81.40
2019-06-15T00:03:20.449Z,81.40
2019-06-15T00:05:46.688Z,81.60
2019-06-15T00:08:13.723Z,81.70
2019-06-15T00:10:40.266Z,81.70
2019-06-15T00:13:06.604Z,81.80
2019-06-15T00:15:32.969Z,82.00
2019-06-15T00:17:59.201Z,82.10
2019-06-15T00:20:25.440Z,82.40
2019-06-15T00:22:51.744Z,82.60
2019-06-15T00:25:18.016Z,82.90
2019-06-15T00:27:44.573Z,83.10
2019-06-15T00:30:12.056Z,83.50
2019-06-15T00:32:38.360Z,83.80
2019-06-15T00:35:08.446Z,84.00
2019-06-15T00:37:34.864Z,84.60
2019-06-15T00:40:03.953Z,83.70
2019-06-15T00:42:30.271Z,84.30
2019-06-15T00:44:56.805Z,83.70
2019-06-15T00:47:23.076Z,83.60
2019-06-15T00:49:49.523Z,83.40
2019-06-15T00:52:15.770Z,83.40
2019-06-15T00:54:49.914Z,83.60
2019-06-15T00:57:10.309Z,83.60
2019-06-15T00:59:36.532Z,84.00
2019-06-15T01:02:03.152Z,84.10
2019-06-15T01:04:29.420Z,84.10
2019-06-15T01:06:55.772Z,84.00
2019-06-15T01:09:22.007Z,84.10
2019-06-15T01:11:48.239Z,84.00
2019-06-15T01:14:14.622Z,84.20
2019-06-15T01:16:40.909Z,84.20
2019-06-15T01:19:07.151Z,85.00
2019-06-15T01:21:33.387Z,84.30
2019-06-15T01:23:59.705Z,84.50
2019-06-15T01:26:26.117Z,84.60
2019-06-15T01:28:52.649Z,84.60
2019-06-15T01:31:18.887Z,84.60
2019-06-15T01:33:45.152Z,84.60
2019-06-15T01:36:11.544Z,84.50
2019-06-15T01:38:37.784Z,84.40
2019-06-15T01:41:04.228Z,84.30
2019-06-15T01:43:30.523Z,84.30
2019-06-15T01:45:56.799Z,84.50
2019-06-15T01:48:23.114Z,84.50
2019-06-15T01:50:49.343Z,84.40
2019-06-15T01:53:15.700Z,84.50
2019-06-15T01:55:41.979Z,84.50
2019-06-15T01:58:08.507Z,84.40
2019-06-15T02:00:34.950Z,84.50
2019-06-15T02:03:02.049Z,84.60
2019-06-15T02:05:28.416Z,84.60
2019-06-15T02:07:54.766Z,84.70
2019-06-15T02:10:28.858Z,84.60
2019-06-15T02:12:55.517Z,84.10
2019-06-15T02:15:22.148Z,83.30
2019-06-15T02:17:48.431Z,83.40
2019-06-15T02:20:15.587Z,83.20
2019-06-15T02:22:41.882Z,80.70
2019-06-15T02:25:09.413Z,74.30
2019-06-15T02:27:35.856Z,72.70
2019-06-15T02:30:05.493Z,73.50
2019-06-15T02:32:32.208Z,74.20
2019-06-15T02:34:58.580Z,74.30
2019-06-15T02:37:24.986Z,73.40
2019-06-15T02:39:51.430Z,72.60
2019-06-15T02:42:17.996Z,72.40
2019-06-15T02:44:44.451Z,72.20
2019-06-15T02:47:10.894Z,71.30
2019-06-15T02:49:37.260Z,71.40
2019-06-15T02:52:03.793Z,68.00
2019-06-15T02:54:30.030Z,67.10
2019-06-15T02:56:57.389Z,68.40
2019-06-15T02:59:23.639Z,70.30
2019-06-15T03:01:49.859Z,71.40
2019-06-15T03:04:16.096Z,72.50
2019-06-15T03:06:42.626Z,72.90
2019-06-15T03:09:09.049Z,72.90
2019-06-15T03:11:35.483Z,73.00
2019-06-15T03:14:04.050Z,72.90
2019-06-15T03:16:30.270Z,73.10
2019-06-15T03:18:56.594Z,73.40
2019-06-15T03:21:22.937Z,73.50
2019-06-15T03:23:49.191Z,73.80
2019-06-15T03:26:15.627Z,73.70
2019-06-15T03:28:42.076Z,73.70
2019-06-15T03:31:08.323Z,73.90
2019-06-15T03:33:35.153Z,74.20
2019-06-15T03:36:01.579Z,74.30
2019-06-15T03:38:27.832Z,74.40
2019-06-15T03:40:54.096Z,74.50
2019-06-15T03:43:20.339Z,74.50
2019-06-15T03:45:46.759Z,74.60
2019-06-15T03:48:13.054Z,74.70
2019-06-15T03:50:39.394Z,74.60
2019-06-15T03:53:05.666Z,74.90
2019-06-15T03:55:31.913Z,75.10
2019-06-15T03:57:58.198Z,75.20
2019-06-15T04:00:45.429Z,75.60
2019-06-15T04:03:12.283Z,75.70
2019-06-15T04:05:39.930Z,76.00
2019-06-15T04:08:06.530Z,76.80
2019-06-15T04:10:32.779Z,76.80
2019-06-15T04:12:59.072Z,77.20
2019-06-15T04:15:25.333Z,77.60
2019-06-15T04:17:51.578Z,77.80
2019-06-15T04:20:17.806Z,77.90
2019-06-15T04:22:44.386Z,78.10
2019-06-15T04:25:11.116Z,78.40
2019-06-15T04:27:37.365Z,78.50
2019-06-15T04:30:05.046Z,78.80
2019-06-15T04:32:31.308Z,78.90
2019-06-15T04:34:57.528Z,79.10
2019-06-15T04:37:23.754Z,79.50
2019-06-15T04:39:50.003Z,79.60
2019-06-15T04:42:16.246Z,79.70
2019-06-15T04:44:42.512Z,79.50
2019-06-15T04:47:08.789Z,78.10
2019-06-15T04:49:35.040Z,77.30
2019-06-15T04:52:01.601Z,77.70
2019-06-15T04:54:28.238Z,78.70
2019-06-15T04:56:54.462Z,78.80
2019-06-15T04:59:20.706Z,78.10
2019-06-15T05:01:47.629Z,78.80
2019-06-15T05:04:13.920Z,78.90
2019-06-15T05:06:40.170Z,80.20
2019-06-15T05:09:06.513Z,79.40
2019-06-15T05:11:33.033Z,78.00
2019-06-15T05:13:59.277Z,75.30
2019-06-15T05:16:25.514Z,70.40
2019-06-15T05:18:51.757Z,70.10
2019-06-15T05:21:18.051Z,67.70
2019-06-15T05:23:44.382Z,64.50
2019-06-15T05:26:10.868Z,57.60
2019-06-15T05:28:37.119Z,57.50
2019-06-15T05:31:03.903Z,54.60
2019-06-15T05:33:30.112Z,51.20
2019-06-15T05:35:56.461Z,46.70
2019-06-15T05:38:22.775Z,45.80
2019-06-15T05:40:49.017Z,45.70
2019-06-15T05:43:15.338Z,45.00
2019-06-15T05:45:41.781Z,43.90
2019-06-15T05:48:08.123Z,43.20
2019-06-15T05:50:34.453Z,42.40
2019-06-15T05:53:00.708Z,41.50
2019-06-15T05:55:26.961Z,41.40
2019-06-15T05:57:53.206Z,40.00
2019-06-15T06:00:19.640Z,38.60
2019-06-15T06:02:45.876Z,38.30
2019-06-15T06:05:12.530Z,38.60
2019-06-15T06:07:38.865Z,37.40
2019-06-15T06:10:06.516Z,37.40
2019-06-15T06:12:33.667Z,36.90
2019-06-15T06:15:00.006Z,36.40
2019-06-15T06:17:26.350Z,36.50
2019-06-15T06:19:52.678Z,36.50
2019-06-15T06:22:19.072Z,35.60
2019-06-15T06:24:45.421Z,35.60
2019-06-15T06:27:11.653Z,35.70
2019-06-15T06:29:37.901Z,35.40
2019-06-15T06:32:04.246Z,36.10
2019-06-15T06:34:30.519Z,35.00
2019-06-15T06:36:56.867Z,35.20
2019-06-15T06:39:23.203Z,34.40
2019-06-15T06:41:51.365Z,35.20
2019-06-15T06:44:17.704Z,34.30
2019-06-15T06:46:44.011Z,34.50
2019-06-15T06:49:10.326Z,35.30
2019-06-15T06:51:36.564Z,35.80
2019-06-15T06:54:03.016Z,35.80
2019-06-15T06:56:29.348Z,34.60
2019-06-15T06:58:55.688Z,35.00
2019-06-15T07:01:22.440Z,35.00
2019-06-15T07:03:48.735Z,33.40
2019-06-15T07:06:15.479Z,33.50
2019-06-15T07:08:42.132Z,33.20
2019-06-15T07:11:08.549Z,33.00
2019-06-15T07:13:34.900Z,31.80
2019-06-15T07:16:01.294Z,33.50
2019-06-15T07:18:27.632Z,31.80
2019-06-15T07:20:55.425Z,31.60
2019-06-15T07:23:21.775Z,32.60
2019-06-15T07:25:48.233Z,32.20
2019-06-15T07:28:14.633Z,31.90
2019-06-15T07:30:41.046Z,31.50
2019-06-15T07:33:07.380Z,31.80
2019-06-15T07:35:33.662Z,30.50
2019-06-15T07:37:59.950Z,30.70
2019-06-15T07:40:26.293Z,31.30
2019-06-15T07:42:52.643Z,32.00
2019-06-15T07:45:19.010Z,32.70
2019-06-15T07:47:45.248Z,32.30
2019-06-15T07:50:11.917Z,31.90
2019-06-15T07:52:38.469Z,31.70
2019-06-15T07:55:06.406Z,31.10
2019-06-15T07:57:32.727Z,32.10
2019-06-15T07:59:58.967Z,32.30
2019-06-15T08:02:25.291Z,33.20
2019-06-15T08:04:51.547Z,32.60
2019-06-15T08:07:17.975Z,32.90
2019-06-15T08:09:44.190Z,32.90
2019-06-15T08:12:10.596Z,33.20
2019-06-15T08:14:37.127Z,33.00
2019-06-15T08:17:03.584Z,32.90
2019-06-15T08:19:30.167Z,33.50
2019-06-15T08:21:56.709Z,32.90
2019-06-15T08:24:23.058Z,33.80
2019-06-15T08:26:49.426Z,33.00
2019-06-15T08:29:15.702Z,33.10
2019-06-15T08:31:42.073Z,33.90
2019-06-15T08:34:08.406Z,34.00
2019-06-15T08:36:34.773Z,35.40
2019-06-15T08:39:01.208Z,35.50
2019-06-15T08:41:27.615Z,35.70
2019-06-15T08:43:53.984Z,36.00
2019-06-15T08:46:20.469Z,36.20
2019-06-15T08:48:46.709Z,37.10
2019-06-15T08:51:12.976Z,36.20
2019-06-15T08:53:39.233Z,38.20
2019-06-15T08:56:05.564Z,37.60
2019-06-15T08:58:31.935Z,38.50
2019-06-15T09:00:58.293Z,38.10
2019-06-15T09:03:24.640Z,39.30
2019-06-15T09:05:50.870Z,39.10
2019-06-15T09:08:17.320Z,38.50
2019-06-15T09:10:44.168Z,38.70
2019-06-15T09:13:10.519Z,39.50
2019-06-15T09:15:45.434Z,39.10
2019-06-15T09:18:11.761Z,39.30
2019-06-15T09:20:38.016Z,38.70
2019-06-15T09:23:04.639Z,38.40
2019-06-15T09:25:31.082Z,37.80
2019-06-15T09:27:57.354Z,38.50
2019-06-15T09:30:23.707Z,37.50
2019-06-15T09:32:50.135Z,37.90
2019-06-15T09:35:16.563Z,37.70
2019-06-15T09:37:42.840Z,38.10
2019-06-15T09:40:09.672Z,37.70
2019-06-15T09:42:36.019Z,38.50
2019-06-15T09:45:07.681Z,38.30
2019-06-15T09:47:34.037Z,38.80
2019-06-15T09:50:00.309Z,38.80
2019-06-15T09:52:26.593Z,38.40
2019-06-15T09:54:52.844Z,38.10
2019-06-15T09:57:19.177Z,38.70
2019-06-15T09:59:45.633Z,39.10
2019-06-15T10:02:11.863Z,39.40
2019-06-15T10:04:38.128Z,39.40
2019-06-15T10:07:04.465Z,39.20
2019-06-15T10:09:30.716Z,39.30
2019-06-15T10:11:56.975Z,41.50
2019-06-15T10:14:23.213Z,40.40
2019-06-15T10:16:49.729Z,41.60
2019-06-15T10:19:16.124Z,41.40
2019-06-15T10:21:42.360Z,42.50
2019-06-15T10:24:08.703Z,42.40
2019-06-15T10:26:35.082Z,42.70
2019-06-15T10:29:01.365Z,43.20
2019-06-15T10:31:27.576Z,43.20
2019-06-15T10:33:53.921Z,42.50
2019-06-15T10:36:20.633Z,42.00
2019-06-15T10:38:46.973Z,42.60
2019-06-15T10:41:13.224Z,41.70
2019-06-15T10:43:39.465Z,42.00
2019-06-15T10:46:05.861Z,41.90
2019-06-15T10:48:32.416Z,43.30
2019-06-15T10:50:58.684Z,42.80
2019-06-15T10:53:25.007Z,42.80
2019-06-15T10:55:51.495Z,44.10
2019-06-15T10:58:17.821Z,45.30
2019-06-15T11:00:47.966Z,45.50
2019-06-15T11:03:13.584Z,46.20
2019-06-15T11:05:40.230Z,45.00
2019-06-15T11:08:06.674Z,44.70
2019-06-15T11:10:47.201Z,44.80
2019-06-15T11:13:13.733Z,44.50
2019-06-15T11:15:40.066Z,43.70
2019-06-15T11:18:07.326Z,44.00
2019-06-15T11:20:33.687Z,44.60
2019-06-15T11:22:59.939Z,44.80
2019-06-15T11:25:27.495Z,43.70
2019-06-15T11:27:53.949Z,44.80
2019-06-15T11:30:20.296Z,44.80
2019-06-15T11:32:46.615Z,44.50
2019-06-15T11:35:13.047Z,45.00
2019-06-15T11:37:39.337Z,45.90
2019-06-15T11:40:07.774Z,44.70
2019-06-15T11:42:34.123Z,45.60
2019-06-15T11:45:00.458Z,44.40
2019-06-15T11:47:26.767Z,45.50
2019-06-15T11:49:52.989Z,46.40
2019-06-15T11:52:19.259Z,45.90
2019-06-15T11:54:45.651Z,45.90
2019-06-15T11:57:11.907Z,45.60
2019-06-15T11:59:38.155Z,46.30
2019-06-15T12:02:04.480Z,47.30
2019-06-15T12:04:30.837Z,47.50
2019-06-15T12:06:57.345Z,46.60
2019-06-15T12:09:23.791Z,46.60
2019-06-15T12:11:50.272Z,48.30
2019-06-15T12:14:17.060Z,47.80
2019-06-15T12:16:43.397Z,48.40
2019-06-15T12:19:09.716Z,48.70
2019-06-15T12:21:36.069Z,49.00
2019-06-15T12:24:02.700Z,49.70
2019-06-15T12:26:28.944Z,48.70
2019-06-15T12:28:55.423Z,49.50
2019-06-15T12:31:21.794Z,49.20
2019-06-15T12:33:48.189Z,48.50
2019-06-15T12:36:19.089Z,48.80
2019-06-15T12:38:42.603Z,48.50
2019-06-15T12:41:08.927Z,48.10
2019-06-15T12:43:35.419Z,48.50
2019-06-15T12:46:02.565Z,48.20
2019-06-15T12:48:28.948Z,49.10
2019-06-15T12:50:57.063Z,49.70
2019-06-15T12:53:23.445Z,49.40
2019-06-15T12:55:52.904Z,49.60
2019-06-15T12:58:19.285Z,49.20
2019-06-15T13:00:58.907Z,48.60
2019-06-15T13:03:13.802Z,48.80
2019-06-15T13:05:40.153Z,48.80
2019-06-15T13:08:06.572Z,47.60
2019-06-15T13:10:33.176Z,49.20
2019-06-15T13:12:59.764Z,48.60
2019-06-15T13:15:25.999Z,47.70
2019-06-15T13:17:52.358Z,48.40
2019-06-15T13:20:20.031Z,48.80
2019-06-15T13:22:46.593Z,49.00
2019-06-15T13:25:13.127Z,49.00
2019-06-15T13:27:39.351Z,49.90
2019-06-15T13:30:08.821Z,48.30
2019-06-15T13:32:35.054Z,48.60
2019-06-15T13:35:01.908Z,48.30
2019-06-15T13:37:41.310Z,49.80
2019-06-15T13:39:57.031Z,50.60
2019-06-15T13:42:23.496Z,51.10
2019-06-15T13:44:49.939Z,51.50
2019-06-15T13:47:16.214Z,51.60
2019-06-15T13:49:42.752Z,51.80
2019-06-15T13:52:09.099Z,52.70
2019-06-15T13:54:35.363Z,52.40
2019-06-15T13:57:01.734Z,52.60
2019-06-15T13:59:27.996Z,54.20
2019-06-15T14:01:54.343Z,54.10
2019-06-15T14:04:20.717Z,54.10
2019-06-15T14:06:47.478Z,52.80
2019-06-15T14:09:13.738Z,53.40
2019-06-15T14:11:40.456Z,53.10
2019-06-15T14:14:06.906Z,53.30
2019-06-15T14:16:33.240Z,53.40
2019-06-15T14:18:59.492Z,54.30
2019-06-15T14:21:25.844Z,54.30
2019-06-15T14:23:52.090Z,53.40
2019-06-15T14:26:18.536Z,53.70
2019-06-15T14:28:44.794Z,54.20
2019-06-15T14:31:11.164Z,52.70
2019-06-15T14:33:37.403Z,53.50
2019-06-15T14:36:03.863Z,53.20
2019-06-15T14:38:30.515Z,53.50
2019-06-15T14:40:56.949Z,54.10
2019-06-15T14:43:23.298Z,54.10
2019-06-15T14:45:58.908Z,54.90
2019-06-15T14:48:18.272Z,52.60
2019-06-15T14:50:44.633Z,52.70
2019-06-15T14:53:10.975Z,53.70
2019-06-15T14:55:37.419Z,54.50
2019-06-15T14:58:06.202Z,54.60
2019-06-15T15:00:32.136Z,55.30
2019-06-15T15:02:58.514Z,55.50
2019-06-15T15:05:27.345Z,55.90
2019-06-15T15:07:53.240Z,55.70
2019-06-15T15:10:19.671Z,55.70
2019-06-15T15:12:46.197Z,56.00
2019-06-15T15:15:12.769Z,56.60
2019-06-15T15:17:39.123Z,56.40
2019-06-15T15:20:07.174Z,56.70
2019-06-15T15:22:33.711Z,56.50
2019-06-15T15:24:59.977Z,56.90
2019-06-15T15:27:26.970Z,57.10
2019-06-15T15:29:56.747Z,57.70
2019-06-15T15:32:27.305Z,57.60
2019-06-15T15:34:50.878Z,58.20
2019-06-15T15:37:17.236Z,58.10
2019-06-15T15:39:43.570Z,57.90
2019-06-15T15:42:09.933Z,57.50
2019-06-15T15:44:36.271Z,57.20
2019-06-15T15:47:02.614Z,57.20
2019-06-15T15:49:28.951Z,57.00
2019-06-15T15:51:56.635Z,56.60
2019-06-15T15:54:23.112Z,56.30
2019-06-15T15:56:50.092Z,56.60
2019-06-15T15:59:16.418Z,56.40
2019-06-15T16:01:42.692Z,56.10
2019-06-15T16:04:08.957Z,56.00
2019-06-15T16:06:36.290Z,56.00
2019-06-15T16:09:06.166Z,56.30
2019-06-15T16:11:32.796Z,56.20
2019-06-15T16:13:59.045Z,55.60
2019-06-15T16:16:26.712Z,56.40
2019-06-15T16:18:53.133Z,57.10
2019-06-15T16:21:19.397Z,57.10
2019-06-15T16:23:46.388Z,57.20
2019-06-15T16:26:12.613Z,58.00
2019-06-15T16:28:38.894Z,55.60
2019-06-15T16:31:12.445Z,55.60
2019-06-15T16:33:33.285Z,56.00
2019-06-15T16:35:59.845Z,56.40
2019-06-15T16:38:27.552Z,56.60
2019-06-15T16:40:56.114Z,56.40
2019-06-15T16:43:25.257Z,56.30
2019-06-15T16:45:52.246Z,56.20
2019-06-15T16:48:18.488Z,56.40
2019-06-15T16:50:46.935Z,56.80
2019-06-15T16:53:12.906Z,54.60
2019-06-15T16:55:39.163Z,55.60
2019-06-15T16:58:07.487Z,55.90
2019-06-15T17:00:36.153Z,56.20
2019-06-15T17:03:17.450Z,57.30
2019-06-15T17:05:30.251Z,57.10
2019-06-15T17:07:56.671Z,56.70
2019-06-15T17:10:34.477Z,57.10
2019-06-15T17:13:00.742Z,58.00
2019-06-15T17:15:26.972Z,57.50
2019-06-15T17:17:53.224Z,57.60
2019-06-15T17:20:26.653Z,57.50
2019-06-15T17:22:52.958Z,57.40
2019-06-15T17:25:19.180Z,57.20
2019-06-15T17:27:46.998Z,56.70
2019-06-15T17:30:13.668Z,57.00
2019-06-15T17:32:39.901Z,57.40
2019-06-15T17:35:06.841Z,57.00
2019-06-15T17:37:33.108Z,56.90
2019-06-15T17:39:59.363Z,57.10
2019-06-15T17:42:26.077Z,57.30
2019-06-15T17:44:52.436Z,58.00
2019-06-15T17:47:18.683Z,58.30
2019-06-15T17:49:46.842Z,58.40
2019-06-15T17:52:13.070Z,58.50
2019-06-15T17:54:39.345Z,58.80
2019-06-15T17:57:05.705Z,59.30
2019-06-15T17:59:31.950Z,59.70
2019-06-15T18:01:58.181Z,60.00
2019-06-15T18:04:24.412Z,60.20
2019-06-15T18:06:50.909Z,60.00
2019-06-15T18:09:17.333Z,58.60
2019-06-15T18:11:46.239Z,59.00
2019-06-15T18:14:12.141Z,58.10
2019-06-15T18:16:38.474Z,58.20
2019-06-15T18:19:06.945Z,58.40
2019-06-15T18:21:33.491Z,59.10
2019-06-15T18:23:59.730Z,58.90
2019-06-15T18:26:26.771Z,59.30
2019-06-15T18:28:53.262Z,59.50
2019-06-15T18:31:19.513Z,59.90
2019-06-15T18:33:47.315Z,60.20
2019-06-15T18:36:16.939Z,60.40
2019-06-15T18:38:41.957Z,60.30
2019-06-15T18:41:08.183Z,59.40
2019-06-15T18:43:36.611Z,60.00
2019-06-15T18:46:02.923Z,60.20
2019-06-15T18:48:29.148Z,59.90
2019-06-15T18:50:56.003Z,60.40
2019-06-15T18:53:22.424Z,60.70
2019-06-15T18:55:49.015Z,60.90
2019-06-15T18:58:17.268Z,61.40
2019-06-15T19:00:43.390Z,62.10
2019-06-15T19:03:09.658Z,61.10
2019-06-15T19:05:37.321Z,61.20
2019-06-15T19:08:06.368Z,61.20
2019-06-15T19:10:35.885Z,60.90
2019-06-15T19:13:03.816Z,61.00
2019-06-15T19:15:30.039Z,61.30
2019-06-15T19:17:56.396Z,62.10
2019-06-15T19:20:22.668Z,62.70
2019-06-15T19:22:48.902Z,62.50
2019-06-15T19:25:16.164Z,63.30
2019-06-15T19:27:42.616Z,63.70
2019-06-15T19:30:09.174Z,62.80
2019-06-15T19:32:36.856Z,63.20
2019-06-15T19:35:06.747Z,62.10
2019-06-15T19:37:34.689Z,62.40
2019-06-15T19:40:08.545Z,63.10
2019-06-15T19:42:36.518Z,62.90
2019-06-15T19:45:10.380Z,62.40
2019-06-15T19:47:37.909Z,63.00
2019-06-15T19:50:06.634Z,63.30
2019-06-15T19:52:35.904Z,63.30
2019-06-15T19:55:02.208Z,63.30
2019-06-15T19:57:28.784Z,63.30
2019-06-15T19:59:56.211Z,63.30
2019-06-15T20:02:22.581Z,63.20
2019-06-15T20:05:00.221Z,63.20
2019-06-15T20:07:17.197Z,61.40
2019-06-15T20:09:46.122Z,61.50
2019-06-15T20:12:20.870Z,61.90
2019-06-15T20:14:39.860Z,62.70
2019-06-15T20:17:07.375Z,61.90
2019-06-15T20:19:37.651Z,62.30
2019-06-15T20:22:06.526Z,63.00
2019-06-15T20:24:32.396Z,61.80
2019-06-15T20:26:58.840Z,61.80
2019-06-15T20:29:27.104Z,61.70
2019-06-15T20:31:53.661Z,62.00
2019-06-15T20:34:20.023Z,60.60
2019-06-15T20:36:47.121Z,61.00
2019-06-15T20:39:16.277Z,61.50
2019-06-15T20:41:41.631Z,61.70
2019-06-15T20:44:07.886Z,61.80
2019-06-15T20:46:34.125Z,60.70
2019-06-15T20:49:00.485Z,60.30
2019-06-15T20:51:26.834Z,60.90
2019-06-15T20:53:53.092Z,61.40
2019-06-15T20:56:19.330Z,60.90
2019-06-15T20:58:45.662Z,61.40
2019-06-15T21:01:11.955Z,61.20
2019-06-15T21:03:38.280Z,61.00
2019-06-15T21:06:06.849Z,62.10
2019-06-15T21:08:33.033Z,61.20
2019-06-15T21:10:59.367Z,60.60
2019-06-15T21:13:26.385Z,61.20
2019-06-15T21:15:53.259Z,60.40
2019-06-15T21:18:19.549Z,60.50
2019-06-15T21:20:47.043Z,60.70
2019-06-15T21:23:16.123Z,60.30
2019-06-15T21:25:41.994Z,60.10
2019-06-15T21:28:08.213Z,60.60
2019-06-15T21:30:36.779Z,60.40
2019-06-15T21:33:02.899Z,60.90
2019-06-15T21:35:29.151Z,61.10
2019-06-15T21:37:57.194Z,61.00
2019-06-15T21:40:23.797Z,61.30
2019-06-15T21:42:50.158Z,61.90
2019-06-15T21:45:16.502Z,62.20
2019-06-15T21:47:42.733Z,61.60
2019-06-15T21:50:09.815Z,61.40
2019-06-15T21:52:36.519Z,62.90
2019-06-15T21:55:06.995Z,62.50
2019-06-15T21:57:33.356Z,63.20
2019-06-15T21:59:59.605Z,63.20
2019-06-15T22:02:26.652Z,63.50
2019-06-15T22:04:53.091Z,63.90
2019-06-15T22:07:19.330Z,64.50
2019-06-15T22:09:46.889Z,64.80
2019-06-15T22:12:16.305Z,65.30
2019-06-15T22:14:42.831Z,66.10
2019-06-15T22:17:09.092Z,66.50
2019-06-15T22:19:36.846Z,66.80
2019-06-15T22:22:03.502Z,67.90
2019-06-15T22:24:30.078Z,67.50
2019-06-15T22:26:56.356Z,66.40
2019-06-15T22:29:22.686Z,65.70
2019-06-15T22:31:49.275Z,65.60
2019-06-15T22:34:16.238Z,65.10
2019-06-15T22:36:42.668Z,65.40
2019-06-15T22:39:09.297Z,66.20
2019-06-15T22:41:36.167Z,67.00
2019-06-15T22:44:02.907Z,67.40
2019-06-15T22:46:29.153Z,67.70
2019-06-15T22:48:56.175Z,69.30
2019-06-15T22:51:22.838Z,72.50
2019-06-15T22:53:49.183Z,78.30
2019-06-15T22:56:17.073Z,80.20
2019-06-15T22:58:45.968Z,82.40
2019-06-15T23:01:11.845Z,83.70
2019-06-15T23:03:38.172Z,85.90
2019-06-15T23:06:06.735Z,87.30
2019-06-15T23:08:32.656Z,89.00
2019-06-15T23:10:58.884Z,89.50
2019-06-15T23:13:26.158Z,90.00
2019-06-15T23:15:52.548Z,90.60
2019-06-15T23:18:19.216Z,91.30
2019-06-15T23:20:46.182Z,91.60
2019-06-15T23:23:12.838Z,92.70
2019-06-15T23:25:39.774Z,92.80
2019-06-15T23:28:07.102Z,92.90
2019-06-15T23:30:36.377Z,93.30
2019-06-15T23:33:01.609Z,93.60
2019-06-15T23:35:29.766Z,93.70
2019-06-15T23:37:56.042Z,93.60
2019-06-15T23:40:26.715Z,93.70
2019-06-15T23:42:52.410Z,93.70
2019-06-15T23:45:19.560Z,93.70
2019-06-15T23:47:46.833Z,93.70
2019-06-15T23:50:16.957Z,93.60
2019-06-15T23:52:43.713Z,93.50
2019-06-15T23:55:10.431Z,93.40
2019-06-15T23:57:36.994Z,93.40
